sensor_id;sensor_type;location;lat;lon;timestamp;temperature;humidity
13642;DHT22;6894;52.196;9.904;2023-07-30T00:01:46;18.40;99.90
13642;DHT22;6894;52.196;9.904;2023-07-30T00:04:13;18.40;99.90
13642;DHT22;6894;52.196;9.904;2023-07-30T00:06:41;18.40;99.90
13642;DHT22;6894;52.196;9.904;2023-07-30T00:09:08;18.40;99.90
13642;DHT22;6894;52.196;9.904;2023-07-30T00:11:35;18.40;99.90
13642;DHT22;6894;52.196;9.904;2023-07-30T00:14:02;18.40;99.90
13642;DHT22;6894;52.196;9.904;2023-07-30T00:16:28;18.30;99.90
13642;DHT22;6894;52.196;9.904;2023-07-30T00:18:55;18.20;99.90
13642;DHT22;6894;52.196;9.904;2023-07-30T00:21:22;18.20;99.90
13642;DHT22;6894;52.196;9.904;2023-07-30T00:23:50;18.20;99.90
13642;DHT22;6894;52.196;9.904;2023-07-30T00:26:17;18.20;99.90
13642;DHT22;6894;52.196;9.904;2023-07-30T00:28:44;18.20;99.90
13642;DHT22;6894;52.196;9.904;2023-07-30T00:31:11;18.20;99.90
13642;DHT22;6894;52.196;9.904;2023-07-30T00:33:37;18.20;99.90
13642;DHT22;6894;52.196;9.904;2023-07-30T00:36:04;18.20;99.90
13642;DHT22;6894;52.196;9.904;2023-07-30T00:38:31;18.10;99.90
13642;DHT22;6894;52.196;9.904;2023-07-30T00:40:59;18.10;99.90
13642;DHT22;6894;52.196;9.904;2023-07-30T00:43:26;18.00;99.90
13642;DHT22;6894;52.196;9.904;2023-07-30T00:45:53;18.00;99.90
13642;DHT22;6894;52.196;9.904;2023-07-30T00:48:19;18.00;99.90
13642;DHT22;6894;52.196;9.904;2023-07-30T00:50:46;17.90;99.90
13642;DHT22;6894;52.196;9.904;2023-07-30T00:53:14;17.90;99.90
13642;DHT22;6894;52.196;9.904;2023-07-30T00:55:43;17.90;99.90
13642;DHT22;6894;52.196;9.904;2023-07-30T00:58:12;17.90;99.90
13642;DHT22;6894;52.196;9.904;2023-07-30T01:00:39;17.90;99.90
13642;DHT22;6894;52.196;9.904;2023-07-30T01:03:07;17.90;99.90
13642;DHT22;6894;52.196;9.904;2023-07-30T01:05:34;17.90;99.90
13642;DHT22;6894;52.196;9.904;2023-07-30T01:08:00;18.00;99.90
13642;DHT22;6894;52.196;9.904;2023-07-30T01:10:30;18.10;99.90
13642;DHT22;6894;52.196;9.904;2023-07-30T01:12:59;18.10;99.90
13642;DHT22;6894;52.196;9.904;2023-07-30T01:15:28;18.20;99.90
13642;DHT22;6894;52.196;9.904;2023-07-30T01:17:55;18.20;99.90
13642;DHT22;6894;52.196;9.904;2023-07-30T01:20:21;18.20;99.90
13642;DHT22;6894;52.196;9.904;2023-07-30T01:22:50;18.30;99.90
13642;DHT22;6894;52.196;9.904;2023-07-30T01:25:17;18.30;99.90
13642;DHT22;6894;52.196;9.904;2023-07-30T01:27:50;18.30;99.90
13642;DHT22;6894;52.196;9.904;2023-07-30T01:30:21;18.30;99.90
13642;DHT22;6894;52.196;9.904;2023-07-30T01:32:50;18.30;99.90
13642;DHT22;6894;52.196;9.904;2023-07-30T01:35:19;18.20;99.90
13642;DHT22;6894;52.196;9.904;2023-07-30T01:37:47;18.30;99.90
13642;DHT22;6894;52.196;9.904;2023-07-30T01:40:15;18.30;99.90
13642;DHT22;6894;52.196;9.904;2023-07-30T01:42:42;18.30;99.90
13642;DHT22;6894;52.196;9.904;2023-07-30T01:45:09;18.30;99.90
13642;DHT22;6894;52.196;9.904;2023-07-30T01:47:36;18.30;99.90
13642;DHT22;6894;52.196;9.904;2023-07-30T01:50:03;18.30;99.90
13642;DHT22;6894;52.196;9.904;2023-07-30T01:52:30;18.30;99.90
13642;DHT22;6894;52.196;9.904;2023-07-30T01:54:57;18.30;99.90
13642;DHT22;6894;52.196;9.904;2023-07-30T01:57:25;18.30;99.90
13642;DHT22;6894;52.196;9.904;2023-07-30T01:59:52;18.30;99.90
13642;DHT22;6894;52.196;9.904;2023-07-30T02:02:19;18.20;99.90
13642;DHT22;6894;52.196;9.904;2023-07-30T02:04:46;18.20;99.90
13642;DHT22;6894;52.196;9.904;2023-07-30T02:07:12;18.10;99.90
13642;DHT22;6894;52.196;9.904;2023-07-30T02:09:39;18.00;99.90
13642;DHT22;6894;52.196;9.904;2023-07-30T02:12:07;18.00;99.90
13642;DHT22;6894;52.196;9.904;2023-07-30T02:14:35;17.90;99.90
13642;DHT22;6894;52.196;9.904;2023-07-30T02:17:02;17.80;99.90
13642;DHT22;6894;52.196;9.904;2023-07-30T02:19:29;17.80;99.90
13642;DHT22;6894;52.196;9.904;2023-07-30T02:21:55;17.70;99.90
13642;DHT22;6894;52.196;9.904;2023-07-30T02:24:22;17.60;99.90
13642;DHT22;6894;52.196;9.904;2023-07-30T02:26:49;17.60;99.90
13642;DHT22;6894;52.196;9.904;2023-07-30T02:29:16;17.60;99.90
13642;DHT22;6894;52.196;9.904;2023-07-30T02:31:44;17.60;99.90
13642;DHT22;6894;52.196;9.904;2023-07-30T02:34:10;17.60;99.90
13642;DHT22;6894;52.196;9.904;2023-07-30T02:36:37;17.50;99.90
13642;DHT22;6894;52.196;9.904;2023-07-30T02:39:04;17.50;99.90
13642;DHT22;6894;52.196;9.904;2023-07-30T02:41:31;17.40;99.90
13642;DHT22;6894;52.196;9.904;2023-07-30T02:43:57;17.40;99.90
13642;DHT22;6894;52.196;9.904;2023-07-30T02:46:24;17.40;99.90
13642;DHT22;6894;52.196;9.904;2023-07-30T02:48:52;17.40;99.90
13642;DHT22;6894;52.196;9.904;2023-07-30T02:51:19;17.30;99.90
13642;DHT22;6894;52.196;9.904;2023-07-30T02:53:45;17.30;99.90
13642;DHT22;6894;52.196;9.904;2023-07-30T02:56:12;17.30;99.90
13642;DHT22;6894;52.196;9.904;2023-07-30T02:58:39;17.30;99.90
13642;DHT22;6894;52.196;9.904;2023-07-30T03:01:06;17.30;99.90
13642;DHT22;6894;52.196;9.904;2023-07-30T03:03:33;17.20;99.90
13642;DHT22;6894;52.196;9.904;2023-07-30T03:06:01;17.20;99.90
13642;DHT22;6894;52.196;9.904;2023-07-30T03:08:30;17.20;99.90
13642;DHT22;6894;52.196;9.904;2023-07-30T03:10:58;17.20;99.90
13642;DHT22;6894;52.196;9.904;2023-07-30T03:13:25;17.10;99.90
13642;DHT22;6894;52.196;9.904;2023-07-30T03:15:52;17.20;99.90
13642;DHT22;6894;52.196;9.904;2023-07-30T03:18:19;17.10;99.90
13642;DHT22;6894;52.196;9.904;2023-07-30T03:20:45;17.10;99.90
13642;DHT22;6894;52.196;9.904;2023-07-30T03:23:14;17.00;99.90
13642;DHT22;6894;52.196;9.904;2023-07-30T03:25:40;17.10;99.90
13642;DHT22;6894;52.196;9.904;2023-07-30T03:28:07;17.00;99.90
13642;DHT22;6894;52.196;9.904;2023-07-30T03:30:34;16.90;99.90
13642;DHT22;6894;52.196;9.904;2023-07-30T03:33:00;16.90;99.90
13642;DHT22;6894;52.196;9.904;2023-07-30T03:35:27;16.90;99.90
13642;DHT22;6894;52.196;9.904;2023-07-30T03:37:54;16.90;99.90
13642;DHT22;6894;52.196;9.904;2023-07-30T03:40:22;16.90;99.90
13642;DHT22;6894;52.196;9.904;2023-07-30T03:42:49;16.90;99.90
13642;DHT22;6894;52.196;9.904;2023-07-30T03:45:16;16.90;99.90
13642;DHT22;6894;52.196;9.904;2023-07-30T03:47:43;16.80;99.90
13642;DHT22;6894;52.196;9.904;2023-07-30T03:50:09;16.80;99.90
13642;DHT22;6894;52.196;9.904;2023-07-30T03:52:36;16.80;99.90
13642;DHT22;6894;52.196;9.904;2023-07-30T03:55:03;16.80;99.90
13642;DHT22;6894;52.196;9.904;2023-07-30T03:57:32;16.70;99.90
13642;DHT22;6894;52.196;9.904;2023-07-30T03:59:58;16.60;99.90
13642;DHT22;6894;52.196;9.904;2023-07-30T04:02:25;16.70;99.90
13642;DHT22;6894;52.196;9.904;2023-07-30T04:04:52;16.70;99.90
13642;DHT22;6894;52.196;9.904;2023-07-30T04:07:19;16.70;99.90
13642;DHT22;6894;52.196;9.904;2023-07-30T04:09:45;16.80;99.90
13642;DHT22;6894;52.196;9.904;2023-07-30T04:12:12;16.70;99.90
13642;DHT22;6894;52.196;9.904;2023-07-30T04:14:40;16.70;99.90
13642;DHT22;6894;52.196;9.904;2023-07-30T04:17:07;16.70;99.90
13642;DHT22;6894;52.196;9.904;2023-07-30T04:19:33;16.80;99.90
13642;DHT22;6894;52.196;9.904;2023-07-30T04:22:00;16.70;99.90
13642;DHT22;6894;52.196;9.904;2023-07-30T04:24:27;16.80;99.90
13642;DHT22;6894;52.196;9.904;2023-07-30T04:26:54;16.80;99.90
13642;DHT22;6894;52.196;9.904;2023-07-30T04:29:20;16.90;99.90
13642;DHT22;6894;52.196;9.904;2023-07-30T04:31:49;16.90;99.90
13642;DHT22;6894;52.196;9.904;2023-07-30T04:34:15;16.90;99.90
13642;DHT22;6894;52.196;9.904;2023-07-30T04:36:42;17.00;99.90
13642;DHT22;6894;52.196;9.904;2023-07-30T04:39:09;17.00;99.90
13642;DHT22;6894;52.196;9.904;2023-07-30T04:41:37;17.00;99.90
13642;DHT22;6894;52.196;9.904;2023-07-30T04:44:04;17.00;99.90
13642;DHT22;6894;52.196;9.904;2023-07-30T04:46:31;17.10;99.90
13642;DHT22;6894;52.196;9.904;2023-07-30T04:49:02;17.10;99.90
13642;DHT22;6894;52.196;9.904;2023-07-30T04:51:29;17.10;99.90
13642;DHT22;6894;52.196;9.904;2023-07-30T04:53:55;17.10;99.90
13642;DHT22;6894;52.196;9.904;2023-07-30T04:56:22;17.20;99.90
13642;DHT22;6894;52.196;9.904;2023-07-30T04:58:51;17.20;99.90
13642;DHT22;6894;52.196;9.904;2023-07-30T05:01:18;17.30;99.90
13642;DHT22;6894;52.196;9.904;2023-07-30T05:03:45;17.30;99.90
13642;DHT22;6894;52.196;9.904;2023-07-30T05:06:14;17.40;99.90
13642;DHT22;6894;52.196;9.904;2023-07-30T05:08:41;17.40;99.90
13642;DHT22;6894;52.196;9.904;2023-07-30T05:11:07;17.50;99.90
13642;DHT22;6894;52.196;9.904;2023-07-30T05:13:34;17.60;99.90
13642;DHT22;6894;52.196;9.904;2023-07-30T05:16:01;17.70;99.90
13642;DHT22;6894;52.196;9.904;2023-07-30T05:18:28;17.70;99.90
13642;DHT22;6894;52.196;9.904;2023-07-30T05:20:55;17.70;99.90
13642;DHT22;6894;52.196;9.904;2023-07-30T05:23:23;17.70;99.90
13642;DHT22;6894;52.196;9.904;2023-07-30T05:25:50;17.70;99.90
13642;DHT22;6894;52.196;9.904;2023-07-30T05:28:17;17.80;99.90
13642;DHT22;6894;52.196;9.904;2023-07-30T05:30:43;17.80;99.90
13642;DHT22;6894;52.196;9.904;2023-07-30T05:33:10;17.80;99.90
13642;DHT22;6894;52.196;9.904;2023-07-30T05:35:37;17.80;99.90
13642;DHT22;6894;52.196;9.904;2023-07-30T05:38:04;17.80;99.90
13642;DHT22;6894;52.196;9.904;2023-07-30T05:40:32;17.80;99.90
13642;DHT22;6894;52.196;9.904;2023-07-30T05:42:58;17.80;99.90
13642;DHT22;6894;52.196;9.904;2023-07-30T05:45:26;17.80;99.90
13642;DHT22;6894;52.196;9.904;2023-07-30T05:47:53;18.00;99.90
13642;DHT22;6894;52.196;9.904;2023-07-30T05:50:19;18.10;99.90
13642;DHT22;6894;52.196;9.904;2023-07-30T05:52:46;18.10;99.90
13642;DHT22;6894;52.196;9.904;2023-07-30T05:55:13;18.20;99.90
13642;DHT22;6894;52.196;9.904;2023-07-30T05:57:41;18.30;99.90
13642;DHT22;6894;52.196;9.904;2023-07-30T06:00:09;18.50;99.90
13642;DHT22;6894;52.196;9.904;2023-07-30T06:02:35;18.70;99.90
13642;DHT22;6894;52.196;9.904;2023-07-30T06:05:02;18.70;99.90
13642;DHT22;6894;52.196;9.904;2023-07-30T06:07:29;18.70;99.90
13642;DHT22;6894;52.196;9.904;2023-07-30T06:09:56;18.80;99.90
13642;DHT22;6894;52.196;9.904;2023-07-30T06:12:23;18.90;99.90
13642;DHT22;6894;52.196;9.904;2023-07-30T06:14:51;18.90;99.90
13642;DHT22;6894;52.196;9.904;2023-07-30T06:17:17;19.00;99.90
13642;DHT22;6894;52.196;9.904;2023-07-30T06:19:44;19.00;99.90
13642;DHT22;6894;52.196;9.904;2023-07-30T06:22:11;19.10;99.90
13642;DHT22;6894;52.196;9.904;2023-07-30T06:24:38;19.30;99.90
13642;DHT22;6894;52.196;9.904;2023-07-30T06:27:05;19.40;99.90
13642;DHT22;6894;52.196;9.904;2023-07-30T06:29:32;19.40;99.90
13642;DHT22;6894;52.196;9.904;2023-07-30T06:32:00;19.30;99.90
13642;DHT22;6894;52.196;9.904;2023-07-30T06:34:27;19.10;99.90
13642;DHT22;6894;52.196;9.904;2023-07-30T06:36:54;19.20;99.90
13642;DHT22;6894;52.196;9.904;2023-07-30T06:39:21;19.20;99.90
13642;DHT22;6894;52.196;9.904;2023-07-30T06:41:47;19.30;99.90
13642;DHT22;6894;52.196;9.904;2023-07-30T06:44:14;19.40;99.90
13642;DHT22;6894;52.196;9.904;2023-07-30T06:46:41;19.50;99.90
13642;DHT22;6894;52.196;9.904;2023-07-30T06:49:09;19.60;99.90
13642;DHT22;6894;52.196;9.904;2023-07-30T06:51:36;19.70;99.90
13642;DHT22;6894;52.196;9.904;2023-07-30T06:54:03;19.60;99.90
13642;DHT22;6894;52.196;9.904;2023-07-30T06:56:30;19.70;99.90
13642;DHT22;6894;52.196;9.904;2023-07-30T06:58:57;19.70;99.90
13642;DHT22;6894;52.196;9.904;2023-07-30T07:01:23;19.80;99.90
13642;DHT22;6894;52.196;9.904;2023-07-30T07:03:50;20.00;99.90
13642;DHT22;6894;52.196;9.904;2023-07-30T07:06:18;20.00;99.90
13642;DHT22;6894;52.196;9.904;2023-07-30T07:08:45;20.10;99.90
13642;DHT22;6894;52.196;9.904;2023-07-30T07:11:12;20.00;99.90
13642;DHT22;6894;52.196;9.904;2023-07-30T07:13:39;20.10;99.90
13642;DHT22;6894;52.196;9.904;2023-07-30T07:16:05;20.20;99.90
13642;DHT22;6894;52.196;9.904;2023-07-30T07:18:32;20.20;99.90
13642;DHT22;6894;52.196;9.904;2023-07-30T07:20:59;20.20;99.90
13642;DHT22;6894;52.196;9.904;2023-07-30T07:23:27;20.30;99.90
13642;DHT22;6894;52.196;9.904;2023-07-30T07:25:54;20.10;99.90
13642;DHT22;6894;52.196;9.904;2023-07-30T07:28:20;20.20;99.90
13642;DHT22;6894;52.196;9.904;2023-07-30T07:30:47;20.20;99.90
13642;DHT22;6894;52.196;9.904;2023-07-30T07:33:14;20.50;99.90
13642;DHT22;6894;52.196;9.904;2023-07-30T07:35:41;20.50;99.90
13642;DHT22;6894;52.196;9.904;2023-07-30T07:38:08;20.60;99.90
13642;DHT22;6894;52.196;9.904;2023-07-30T07:40:38;20.60;99.90
13642;DHT22;6894;52.196;9.904;2023-07-30T07:43:06;20.70;99.90
13642;DHT22;6894;52.196;9.904;2023-07-30T07:45:32;20.80;99.90
13642;DHT22;6894;52.196;9.904;2023-07-30T07:47:59;21.00;99.90
13642;DHT22;6894;52.196;9.904;2023-07-30T07:50:26;21.10;99.90
13642;DHT22;6894;52.196;9.904;2023-07-30T07:52:53;21.00;99.90
13642;DHT22;6894;52.196;9.904;2023-07-30T07:55:20;20.50;99.90
13642;DHT22;6894;52.196;9.904;2023-07-30T07:57:48;20.60;99.90
13642;DHT22;6894;52.196;9.904;2023-07-30T08:00:15;21.00;99.90
13642;DHT22;6894;52.196;9.904;2023-07-30T08:02:41;21.00;99.90
13642;DHT22;6894;52.196;9.904;2023-07-30T08:05:08;21.10;99.90
13642;DHT22;6894;52.196;9.904;2023-07-30T08:07:35;21.20;99.90
13642;DHT22;6894;52.196;9.904;2023-07-30T08:10:02;21.40;99.90
13642;DHT22;6894;52.196;9.904;2023-07-30T08:12:31;21.50;99.90
13642;DHT22;6894;52.196;9.904;2023-07-30T08:14:59;21.60;99.90
13642;DHT22;6894;52.196;9.904;2023-07-30T08:17:26;21.40;99.90
13642;DHT22;6894;52.196;9.904;2023-07-30T08:19:53;21.60;99.90
13642;DHT22;6894;52.196;9.904;2023-07-30T08:22:19;21.80;99.90
13642;DHT22;6894;52.196;9.904;2023-07-30T08:24:46;21.90;99.90
13642;DHT22;6894;52.196;9.904;2023-07-30T08:27:13;22.30;99.90
13642;DHT22;6894;52.196;9.904;2023-07-30T08:29:40;22.10;99.90
13642;DHT22;6894;52.196;9.904;2023-07-30T08:32:08;21.70;99.90
13642;DHT22;6894;52.196;9.904;2023-07-30T08:34:35;21.90;99.90
13642;DHT22;6894;52.196;9.904;2023-07-30T08:37:02;22.00;99.90
13642;DHT22;6894;52.196;9.904;2023-07-30T08:39:29;22.40;99.90
13642;DHT22;6894;52.196;9.904;2023-07-30T08:41:56;22.80;99.90
13642;DHT22;6894;52.196;9.904;2023-07-30T08:44:23;22.80;99.90
13642;DHT22;6894;52.196;9.904;2023-07-30T08:46:51;22.70;99.90
13642;DHT22;6894;52.196;9.904;2023-07-30T08:49:19;22.80;99.90
13642;DHT22;6894;52.196;9.904;2023-07-30T08:51:48;23.20;99.90
13642;DHT22;6894;52.196;9.904;2023-07-30T08:54:20;23.10;99.90
13642;DHT22;6894;52.196;9.904;2023-07-30T08:56:49;22.80;99.90
13642;DHT22;6894;52.196;9.904;2023-07-30T08:59:16;22.60;99.90
13642;DHT22;6894;52.196;9.904;2023-07-30T09:01:45;22.60;99.90
13642;DHT22;6894;52.196;9.904;2023-07-30T09:04:15;22.70;99.90
13642;DHT22;6894;52.196;9.904;2023-07-30T09:06:47;22.80;99.90
13642;DHT22;6894;52.196;9.904;2023-07-30T09:09:14;22.90;99.90
13642;DHT22;6894;52.196;9.904;2023-07-30T09:11:41;23.00;99.90
13642;DHT22;6894;52.196;9.904;2023-07-30T09:14:08;22.70;99.90
13642;DHT22;6894;52.196;9.904;2023-07-30T09:16:35;22.60;99.90
13642;DHT22;6894;52.196;9.904;2023-07-30T09:19:01;22.40;99.90
13642;DHT22;6894;52.196;9.904;2023-07-30T09:21:29;21.90;99.90
13642;DHT22;6894;52.196;9.904;2023-07-30T09:24:01;21.70;99.90
13642;DHT22;6894;52.196;9.904;2023-07-30T09:26:39;21.70;99.90
13642;DHT22;6894;52.196;9.904;2023-07-30T09:29:08;21.80;99.90
13642;DHT22;6894;52.196;9.904;2023-07-30T09:31:45;21.90;99.90
13642;DHT22;6894;52.196;9.904;2023-07-30T09:34:15;21.90;99.90
13642;DHT22;6894;52.196;9.904;2023-07-30T09:36:44;21.90;99.90
13642;DHT22;6894;52.196;9.904;2023-07-30T09:39:16;21.90;99.90
13642;DHT22;6894;52.196;9.904;2023-07-30T09:41:44;21.80;99.90
13642;DHT22;6894;52.196;9.904;2023-07-30T09:44:11;21.60;99.90
13642;DHT22;6894;52.196;9.904;2023-07-30T09:46:42;21.70;99.90
13642;DHT22;6894;52.196;9.904;2023-07-30T09:49:09;21.60;99.90
13642;DHT22;6894;52.196;9.904;2023-07-30T09:51:37;21.60;99.90
13642;DHT22;6894;52.196;9.904;2023-07-30T09:54:06;21.50;99.90
13642;DHT22;6894;52.196;9.904;2023-07-30T09:56:35;21.50;99.90
13642;DHT22;6894;52.196;9.904;2023-07-30T09:59:03;21.60;99.90
13642;DHT22;6894;52.196;9.904;2023-07-30T10:01:30;21.60;99.90
13642;DHT22;6894;52.196;9.904;2023-07-30T10:03:57;21.50;99.90
13642;DHT22;6894;52.196;9.904;2023-07-30T10:06:27;21.40;99.90
13642;DHT22;6894;52.196;9.904;2023-07-30T10:08:57;21.10;99.90
13642;DHT22;6894;52.196;9.904;2023-07-30T10:11:26;20.90;99.90
13642;DHT22;6894;52.196;9.904;2023-07-30T10:13:56;20.80;99.90
13642;DHT22;6894;52.196;9.904;2023-07-30T10:16:25;20.80;99.90
13642;DHT22;6894;52.196;9.904;2023-07-30T10:18:55;20.80;99.90
13642;DHT22;6894;52.196;9.904;2023-07-30T10:21:24;20.60;99.90
13642;DHT22;6894;52.196;9.904;2023-07-30T10:23:58;20.60;99.90
13642;DHT22;6894;52.196;9.904;2023-07-30T10:26:30;20.50;99.90
13642;DHT22;6894;52.196;9.904;2023-07-30T10:29:18;20.30;99.90
13642;DHT22;6894;52.196;9.904;2023-07-30T10:31:50;20.30;99.90
13642;DHT22;6894;52.196;9.904;2023-07-30T10:34:18;20.20;99.90
13642;DHT22;6894;52.196;9.904;2023-07-30T10:36:47;20.20;99.90
13642;DHT22;6894;52.196;9.904;2023-07-30T10:39:16;20.10;99.90
13642;DHT22;6894;52.196;9.904;2023-07-30T10:41:44;20.10;99.90
13642;DHT22;6894;52.196;9.904;2023-07-30T10:44:22;20.20;99.90
13642;DHT22;6894;52.196;9.904;2023-07-30T10:46:49;20.00;99.90
13642;DHT22;6894;52.196;9.904;2023-07-30T10:49:15;20.00;99.90
13642;DHT22;6894;52.196;9.904;2023-07-30T10:51:42;19.90;99.90
13642;DHT22;6894;52.196;9.904;2023-07-30T10:54:09;20.00;99.90
13642;DHT22;6894;52.196;9.904;2023-07-30T10:56:36;20.10;99.90
13642;DHT22;6894;52.196;9.904;2023-07-30T10:59:04;20.10;99.90
13642;DHT22;6894;52.196;9.904;2023-07-30T11:01:36;20.00;99.90
13642;DHT22;6894;52.196;9.904;2023-07-30T11:04:06;20.00;99.90
13642;DHT22;6894;52.196;9.904;2023-07-30T11:06:33;20.00;99.90
13642;DHT22;6894;52.196;9.904;2023-07-30T11:09:00;20.00;99.90
13642;DHT22;6894;52.196;9.904;2023-07-30T11:11:26;20.00;99.90
13642;DHT22;6894;52.196;9.904;2023-07-30T11:13:54;20.00;99.90
13642;DHT22;6894;52.196;9.904;2023-07-30T11:16:20;20.20;99.90
13642;DHT22;6894;52.196;9.904;2023-07-30T11:18:49;20.00;99.90
13642;DHT22;6894;52.196;9.904;2023-07-30T11:21:16;20.10;99.90
13642;DHT22;6894;52.196;9.904;2023-07-30T11:23:44;20.10;99.90
13642;DHT22;6894;52.196;9.904;2023-07-30T11:26:14;20.10;99.90
13642;DHT22;6894;52.196;9.904;2023-07-30T11:28:41;20.10;99.90
13642;DHT22;6894;52.196;9.904;2023-07-30T11:31:10;20.20;99.90
13642;DHT22;6894;52.196;9.904;2023-07-30T11:33:38;20.30;99.90
13642;DHT22;6894;52.196;9.904;2023-07-30T11:36:09;20.50;99.90
13642;DHT22;6894;52.196;9.904;2023-07-30T11:38:37;20.50;99.90
13642;DHT22;6894;52.196;9.904;2023-07-30T11:41:04;20.50;99.90
13642;DHT22;6894;52.196;9.904;2023-07-30T11:43:36;20.50;99.90
13642;DHT22;6894;52.196;9.904;2023-07-30T11:46:11;20.50;99.90
13642;DHT22;6894;52.196;9.904;2023-07-30T11:48:39;20.40;99.90
13642;DHT22;6894;52.196;9.904;2023-07-30T11:51:18;20.50;99.90
13642;DHT22;6894;52.196;9.904;2023-07-30T11:53:46;20.50;99.90
13642;DHT22;6894;52.196;9.904;2023-07-30T11:56:19;20.80;99.90
13642;DHT22;6894;52.196;9.904;2023-07-30T11:58:47;20.90;99.90
13642;DHT22;6894;52.196;9.904;2023-07-30T12:01:15;21.00;99.90
13642;DHT22;6894;52.196;9.904;2023-07-30T12:03:42;20.80;99.90
13642;DHT22;6894;52.196;9.904;2023-07-30T12:06:11;20.60;99.90
13642;DHT22;6894;52.196;9.904;2023-07-30T12:08:38;20.70;99.90
13642;DHT22;6894;52.196;9.904;2023-07-30T12:11:07;21.00;99.90
13642;DHT22;6894;52.196;9.904;2023-07-30T12:13:34;21.30;99.90
13642;DHT22;6894;52.196;9.904;2023-07-30T12:16:02;21.50;99.90
13642;DHT22;6894;52.196;9.904;2023-07-30T12:18:28;21.70;99.90
13642;DHT22;6894;52.196;9.904;2023-07-30T12:20:55;21.70;99.90
13642;DHT22;6894;52.196;9.904;2023-07-30T12:23:24;21.60;99.90
13642;DHT22;6894;52.196;9.904;2023-07-30T12:25:51;21.70;99.90
13642;DHT22;6894;52.196;9.904;2023-07-30T12:28:18;21.70;99.90
13642;DHT22;6894;52.196;9.904;2023-07-30T12:30:46;21.60;99.90
13642;DHT22;6894;52.196;9.904;2023-07-30T12:33:13;21.70;99.90
13642;DHT22;6894;52.196;9.904;2023-07-30T12:35:39;21.90;99.90
13642;DHT22;6894;52.196;9.904;2023-07-30T12:38:06;21.90;99.90
13642;DHT22;6894;52.196;9.904;2023-07-30T12:40:34;22.20;99.90
13642;DHT22;6894;52.196;9.904;2023-07-30T12:43:02;22.70;99.90
13642;DHT22;6894;52.196;9.904;2023-07-30T12:45:29;23.10;99.90
13642;DHT22;6894;52.196;9.904;2023-07-30T12:47:56;23.50;99.90
13642;DHT22;6894;52.196;9.904;2023-07-30T12:50:23;23.40;99.90
13642;DHT22;6894;52.196;9.904;2023-07-30T12:52:50;23.40;99.90
13642;DHT22;6894;52.196;9.904;2023-07-30T12:55:17;23.10;99.90
13642;DHT22;6894;52.196;9.904;2023-07-30T12:57:45;23.30;99.90
13642;DHT22;6894;52.196;9.904;2023-07-30T13:00:13;23.40;99.90
13642;DHT22;6894;52.196;9.904;2023-07-30T13:02:39;23.40;99.90
13642;DHT22;6894;52.196;9.904;2023-07-30T13:05:07;23.40;99.90
13642;DHT22;6894;52.196;9.904;2023-07-30T13:07:33;23.10;99.90
13642;DHT22;6894;52.196;9.904;2023-07-30T13:10:05;23.10;99.90
13642;DHT22;6894;52.196;9.904;2023-07-30T13:12:32;23.10;99.90
13642;DHT22;6894;52.196;9.904;2023-07-30T13:15:01;23.20;99.90
13642;DHT22;6894;52.196;9.904;2023-07-30T13:17:28;23.30;99.90
13642;DHT22;6894;52.196;9.904;2023-07-30T13:19:55;23.20;99.90
13642;DHT22;6894;52.196;9.904;2023-07-30T13:22:22;23.50;99.90
13642;DHT22;6894;52.196;9.904;2023-07-30T13:24:48;23.80;99.90
13642;DHT22;6894;52.196;9.904;2023-07-30T13:27:16;24.00;99.90
13642;DHT22;6894;52.196;9.904;2023-07-30T13:29:42;24.20;99.90
13642;DHT22;6894;52.196;9.904;2023-07-30T13:32:11;24.50;99.90
13642;DHT22;6894;52.196;9.904;2023-07-30T13:34:37;24.60;99.90
13642;DHT22;6894;52.196;9.904;2023-07-30T13:37:04;24.00;99.90
13642;DHT22;6894;52.196;9.904;2023-07-30T13:39:31;24.00;99.90
13642;DHT22;6894;52.196;9.904;2023-07-30T13:41:58;24.00;99.90
13642;DHT22;6894;52.196;9.904;2023-07-30T13:44:25;24.30;99.90
13642;DHT22;6894;52.196;9.904;2023-07-30T13:46:51;24.30;99.90
13642;DHT22;6894;52.196;9.904;2023-07-30T13:49:20;24.30;99.90
13642;DHT22;6894;52.196;9.904;2023-07-30T13:51:47;23.90;99.90
13642;DHT22;6894;52.196;9.904;2023-07-30T13:54:14;23.90;99.90
13642;DHT22;6894;52.196;9.904;2023-07-30T13:56:40;23.90;99.90
13642;DHT22;6894;52.196;9.904;2023-07-30T13:59:07;23.90;99.90
13642;DHT22;6894;52.196;9.904;2023-07-30T14:01:34;23.70;99.90
13642;DHT22;6894;52.196;9.904;2023-07-30T14:04:01;23.50;99.90
13642;DHT22;6894;52.196;9.904;2023-07-30T14:06:29;23.40;99.90
13642;DHT22;6894;52.196;9.904;2023-07-30T14:08:56;23.40;99.90
13642;DHT22;6894;52.196;9.904;2023-07-30T14:11:24;23.20;99.90
13642;DHT22;6894;52.196;9.904;2023-07-30T14:13:51;22.90;99.90
13642;DHT22;6894;52.196;9.904;2023-07-30T14:16:18;23.00;99.90
13642;DHT22;6894;52.196;9.904;2023-07-30T14:18:45;22.90;99.90
13642;DHT22;6894;52.196;9.904;2023-07-30T14:21:11;23.00;99.90
13642;DHT22;6894;52.196;9.904;2023-07-30T14:23:40;23.30;99.90
13642;DHT22;6894;52.196;9.904;2023-07-30T14:26:06;23.50;99.90
13642;DHT22;6894;52.196;9.904;2023-07-30T14:28:33;23.30;99.90
13642;DHT22;6894;52.196;9.904;2023-07-30T14:31:00;23.10;99.90
13642;DHT22;6894;52.196;9.904;2023-07-30T14:33:27;22.90;99.90
13642;DHT22;6894;52.196;9.904;2023-07-30T14:35:53;22.90;99.90
13642;DHT22;6894;52.196;9.904;2023-07-30T14:38:20;22.90;99.90
13642;DHT22;6894;52.196;9.904;2023-07-30T14:40:48;22.90;99.90
13642;DHT22;6894;52.196;9.904;2023-07-30T14:43:15;22.50;99.90
13642;DHT22;6894;52.196;9.904;2023-07-30T14:45:42;22.50;99.90
13642;DHT22;6894;52.196;9.904;2023-07-30T14:48:08;22.60;99.90
13642;DHT22;6894;52.196;9.904;2023-07-30T14:50:35;22.50;99.90
13642;DHT22;6894;52.196;9.904;2023-07-30T14:53:02;22.20;99.90
13642;DHT22;6894;52.196;9.904;2023-07-30T14:55:29;22.00;99.90
13642;DHT22;6894;52.196;9.904;2023-07-30T14:57:57;22.00;99.90
13642;DHT22;6894;52.196;9.904;2023-07-30T15:00:23;21.80;99.90
13642;DHT22;6894;52.196;9.904;2023-07-30T15:02:51;21.70;99.90
13642;DHT22;6894;52.196;9.904;2023-07-30T15:05:18;21.50;99.90
13642;DHT22;6894;52.196;9.904;2023-07-30T15:07:45;21.40;99.90
13642;DHT22;6894;52.196;9.904;2023-07-30T15:10:12;21.20;99.90
13642;DHT22;6894;52.196;9.904;2023-07-30T15:12:39;21.10;99.90
13642;DHT22;6894;52.196;9.904;2023-07-30T15:15:08;20.90;99.90
13642;DHT22;6894;52.196;9.904;2023-07-30T15:17:35;20.80;99.90
13642;DHT22;6894;52.196;9.904;2023-07-30T15:20:02;20.50;99.90
13642;DHT22;6894;52.196;9.904;2023-07-30T15:22:29;20.10;99.90
13642;DHT22;6894;52.196;9.904;2023-07-30T15:24:55;19.90;99.90
13642;DHT22;6894;52.196;9.904;2023-07-30T15:27:22;19.80;99.90
13642;DHT22;6894;52.196;9.904;2023-07-30T15:29:49;19.80;99.90
13642;DHT22;6894;52.196;9.904;2023-07-30T15:32:17;19.80;99.90
13642;DHT22;6894;52.196;9.904;2023-07-30T15:34:44;19.80;99.90
13642;DHT22;6894;52.196;9.904;2023-07-30T15:37:10;20.00;99.90
13642;DHT22;6894;52.196;9.904;2023-07-30T15:39:38;20.30;99.90
13642;DHT22;6894;52.196;9.904;2023-07-30T15:42:05;20.40;99.90
13642;DHT22;6894;52.196;9.904;2023-07-30T15:44:32;20.50;99.90
13642;DHT22;6894;52.196;9.904;2023-07-30T15:46:59;20.70;99.90